sensor_id;sensor_type;location;lat;lon;timestamp;noise_LAeq;noise_LA_min;noise_LA_max;noise_LA01;noise_LA95
74260;Laerm;62630;55.874;37.516;2023-06-10T00:01:39;56.98;46.71;69.32;;
74260;Laerm;62630;55.874;37.516;2023-06-10T00:04:04;54.55;46.91;67.08;;
74260;Laerm;62630;55.874;37.516;2023-06-10T00:06:30;50.71;46.40;62.56;;
74260;Laerm;62630;55.874;37.516;2023-06-10T00:09:04;55.46;46.70;69.38;;
74260;Laerm;62630;55.874;37.516;2023-06-10T00:14:18;52.84;47.14;63.97;;
74260;Laerm;62630;55.874;37.516;2023-06-10T00:16:44;58.85;47.04;72.28;;
74260;Laerm;62630;55.874;37.516;2023-06-10T00:19:10;57.90;47.39;68.58;;
74260;Laerm;62630;55.874;37.516;2023-06-10T00:21:39;54.59;46.24;68.31;;
74260;Laerm;62630;55.874;37.516;2023-06-10T00:24:06;54.17;47.05;70.37;;
74260;Laerm;62630;55.874;37.516;2023-06-10T00:26:32;55.03;46.69;72.06;;
74260;Laerm;62630;55.874;37.516;2023-06-10T00:28:58;55.87;47.63;68.27;;
74260;Laerm;62630;55.874;37.516;2023-06-10T00:31:24;50.79;46.22;62.15;;
74260;Laerm;62630;55.874;37.516;2023-06-10T00:33:51;54.44;46.40;65.52;;
74260;Laerm;62630;55.874;37.516;2023-06-10T00:36:17;54.41;47.99;63.91;;
74260;Laerm;62630;55.874;37.516;2023-06-10T00:38:43;55.78;46.69;72.40;;
74260;Laerm;62630;55.874;37.516;2023-06-10T00:41:08;52.13;47.75;60.95;;
74260;Laerm;62630;55.874;37.516;2023-06-10T00:43:34;57.05;47.96;70.84;;
74260;Laerm;62630;55.874;37.516;2023-06-10T00:46:00;55.27;47.73;68.62;;
74260;Laerm;62630;55.874;37.516;2023-06-10T00:48:27;56.04;48.41;68.99;;
74260;Laerm;62630;55.874;37.516;2023-06-10T00:50:53;56.29;46.91;72.20;;
74260;Laerm;62630;55.874;37.516;2023-06-10T00:53:19;55.05;45.74;70.10;;
74260;Laerm;62630;55.874;37.516;2023-06-10T00:55:46;55.22;46.93;66.98;;
74260;Laerm;62630;55.874;37.516;2023-06-10T00:58:12;53.43;47.00;66.24;;
74260;Laerm;62630;55.874;37.516;2023-06-10T01:00:37;55.95;47.13;71.00;;
74260;Laerm;62630;55.874;37.516;2023-06-10T01:03:03;53.36;46.85;64.55;;
74260;Laerm;62630;55.874;37.516;2023-06-10T01:05:35;56.48;48.13;69.15;;
74260;Laerm;62630;55.874;37.516;2023-06-10T01:08:21;56.05;47.59;71.01;;
74260;Laerm;62630;55.874;37.516;2023-06-10T01:10:54;53.76;48.02;68.69;;
74260;Laerm;62630;55.874;37.516;2023-06-10T01:13:22;54.05;48.33;69.74;;
74260;Laerm;62630;55.874;37.516;2023-06-10T01:15:50;59.72;48.62;71.05;;
74260;Laerm;62630;55.874;37.516;2023-06-10T01:18:17;60.17;47.98;73.19;;
74260;Laerm;62630;55.874;37.516;2023-06-10T01:20:43;56.28;48.64;67.48;;
74260;Laerm;62630;55.874;37.516;2023-06-10T01:23:10;55.92;47.44;69.54;;
74260;Laerm;62630;55.874;37.516;2023-06-10T01:25:38;55.77;47.72;68.68;;
74260;Laerm;62630;55.874;37.516;2023-06-10T01:28:31;58.46;48.04;69.03;;
74260;Laerm;62630;55.874;37.516;2023-06-10T01:31:00;58.32;48.95;71.56;;
74260;Laerm;62630;55.874;37.516;2023-06-10T01:33:31;55.98;48.27;64.77;;
74260;Laerm;62630;55.874;37.516;2023-06-10T01:35:59;53.07;47.12;65.84;;
74260;Laerm;62630;55.874;37.516;2023-06-10T01:38:27;56.02;47.63;65.98;;
74260;Laerm;62630;55.874;37.516;2023-06-10T01:40:55;57.78;47.53;69.90;;
74260;Laerm;62630;55.874;37.516;2023-06-10T01:43:22;55.65;47.30;67.15;;
74260;Laerm;62630;55.874;37.516;2023-06-10T01:45:47;57.06;47.89;68.48;;
74260;Laerm;62630;55.874;37.516;2023-06-10T01:48:13;53.44;46.69;65.31;;
74260;Laerm;62630;55.874;37.516;2023-06-10T01:50:38;57.52;47.86;71.57;;
74260;Laerm;62630;55.874;37.516;2023-06-10T01:53:04;57.63;47.87;68.89;;
74260;Laerm;62630;55.874;37.516;2023-06-10T01:55:32;53.14;46.19;69.53;;
74260;Laerm;62630;55.874;37.516;2023-06-10T01:57:58;53.11;46.46;66.34;;
74260;Laerm;62630;55.874;37.516;2023-06-10T02:00:24;54.57;47.09;69.06;;
74260;Laerm;62630;55.874;37.516;2023-06-10T02:02:49;56.42;47.45;66.66;;
74260;Laerm;62630;55.874;37.516;2023-06-10T02:05:15;57.55;46.61;68.21;;
74260;Laerm;62630;55.874;37.516;2023-06-10T02:07:40;56.47;46.61;73.71;;
74260;Laerm;62630;55.874;37.516;2023-06-10T02:10:06;56.92;47.92;68.44;;
74260;Laerm;62630;55.874;37.516;2023-06-10T02:12:32;54.32;46.26;67.37;;
74260;Laerm;62630;55.874;37.516;2023-06-10T02:14:57;60.85;48.36;72.69;;
74260;Laerm;62630;55.874;37.516;2023-06-10T02:17:23;57.68;48.79;71.04;;
74260;Laerm;62630;55.874;37.516;2023-06-10T02:19:49;56.90;47.51;69.52;;
74260;Laerm;62630;55.874;37.516;2023-06-10T02:22:21;57.37;47.53;72.55;;
74260;Laerm;62630;55.874;37.516;2023-06-10T02:24:47;59.37;46.90;72.25;;
74260;Laerm;62630;55.874;37.516;2023-06-10T02:27:14;57.82;47.19;70.94;;
74260;Laerm;62630;55.874;37.516;2023-06-10T02:29:40;60.33;47.73;72.83;;
74260;Laerm;62630;55.874;37.516;2023-06-10T02:32:07;57.48;47.01;70.97;;
74260;Laerm;62630;55.874;37.516;2023-06-10T02:34:32;59.50;48.45;72.68;;
74260;Laerm;62630;55.874;37.516;2023-06-10T02:36:59;59.34;48.68;73.88;;
74260;Laerm;62630;55.874;37.516;2023-06-10T02:39:24;57.94;48.20;71.59;;
74260;Laerm;62630;55.874;37.516;2023-06-10T02:41:50;59.67;48.33;72.02;;
74260;Laerm;62630;55.874;37.516;2023-06-10T02:44:18;58.03;47.71;71.61;;
74260;Laerm;62630;55.874;37.516;2023-06-10T02:46:43;57.70;46.89;68.88;;
74260;Laerm;62630;55.874;37.516;2023-06-10T02:49:09;59.37;48.84;69.87;;
74260;Laerm;62630;55.874;37.516;2023-06-10T02:51:34;62.05;49.22;80.27;;
74260;Laerm;62630;55.874;37.516;2023-06-10T02:54:01;58.85;47.76;69.03;;
74260;Laerm;62630;55.874;37.516;2023-06-10T02:56:27;58.11;47.38;75.97;;
74260;Laerm;62630;55.874;37.516;2023-06-10T02:58:52;54.53;46.22;67.93;;
74260;Laerm;62630;55.874;37.516;2023-06-10T03:01:18;55.13;46.81;66.43;;
74260;Laerm;62630;55.874;37.516;2023-06-10T03:03:44;61.32;48.64;72.02;;
74260;Laerm;62630;55.874;37.516;2023-06-10T03:06:12;57.89;46.18;71.56;;
74260;Laerm;62630;55.874;37.516;2023-06-10T03:08:38;59.07;47.33;72.55;;
74260;Laerm;62630;55.874;37.516;2023-06-10T03:11:04;55.03;46.22;64.77;;
74260;Laerm;62630;55.874;37.516;2023-06-10T03:13:29;59.87;48.74;72.34;;
74260;Laerm;62630;55.874;37.516;2023-06-10T03:15:55;60.78;48.09;75.22;;
74260;Laerm;62630;55.874;37.516;2023-06-10T03:18:27;56.58;46.04;67.32;;
74260;Laerm;62630;55.874;37.516;2023-06-10T03:20:56;62.17;47.64;74.45;;
74260;Laerm;62630;55.874;37.516;2023-06-10T03:23:22;59.02;47.05;73.71;;
74260;Laerm;62630;55.874;37.516;2023-06-10T03:25:48;61.00;48.37;71.27;;
74260;Laerm;62630;55.874;37.516;2023-06-10T03:28:13;58.98;47.01;71.43;;
74260;Laerm;62630;55.874;37.516;2023-06-10T03:30:39;54.80;45.35;68.11;;
74260;Laerm;62630;55.874;37.516;2023-06-10T03:33:05;56.68;46.74;71.22;;
74260;Laerm;62630;55.874;37.516;2023-06-10T03:35:30;60.29;47.29;70.86;;
74260;Laerm;62630;55.874;37.516;2023-06-10T03:37:58;58.89;47.40;68.78;;
74260;Laerm;62630;55.874;37.516;2023-06-10T03:40:29;62.72;49.02;75.41;;
74260;Laerm;62630;55.874;37.516;2023-06-10T03:42:57;57.18;46.10;67.23;;
74260;Laerm;62630;55.874;37.516;2023-06-10T03:45:22;55.02;46.09;71.91;;
74260;Laerm;62630;55.874;37.516;2023-06-10T03:47:49;60.31;49.10;72.46;;
74260;Laerm;62630;55.874;37.516;2023-06-10T03:50:15;62.08;47.55;74.39;;
74260;Laerm;62630;55.874;37.516;2023-06-10T03:52:41;58.25;46.81;70.26;;
74260;Laerm;62630;55.874;37.516;2023-06-10T03:55:07;59.11;46.59;71.42;;
74260;Laerm;62630;55.874;37.516;2023-06-10T03:57:33;59.86;47.69;69.42;;
74260;Laerm;62630;55.874;37.516;2023-06-10T03:59:58;62.22;46.86;75.23;;
74260;Laerm;62630;55.874;37.516;2023-06-10T04:02:24;57.82;47.14;69.28;;
74260;Laerm;62630;55.874;37.516;2023-06-10T04:04:50;58.24;47.34;72.47;;
74260;Laerm;62630;55.874;37.516;2023-06-10T04:07:16;63.08;46.70;76.44;;
74260;Laerm;62630;55.874;37.516;2023-06-10T04:09:44;72.76;52.76;81.84;;
74260;Laerm;62630;55.874;37.516;2023-06-10T04:12:09;60.15;50.91;71.89;;
74260;Laerm;62630;55.874;37.516;2023-06-10T04:14:36;63.68;51.71;71.84;;
74260;Laerm;62630;55.874;37.516;2023-06-10T04:17:04;57.82;48.47;68.05;;
74260;Laerm;62630;55.874;37.516;2023-06-10T04:19:32;75.78;52.54;85.80;;
74260;Laerm;62630;55.874;37.516;2023-06-10T04:21:57;64.41;53.85;75.88;;
74260;Laerm;62630;55.874;37.516;2023-06-10T04:24:23;57.80;47.63;70.88;;
74260;Laerm;62630;55.874;37.516;2023-06-10T04:26:48;62.43;51.38;73.60;;
74260;Laerm;62630;55.874;37.516;2023-06-10T04:29:14;59.38;49.13;74.23;;
74260;Laerm;62630;55.874;37.516;2023-06-10T04:31:40;60.89;50.45;67.78;;
74260;Laerm;62630;55.874;37.516;2023-06-10T04:34:08;65.56;50.10;82.48;;
74260;Laerm;62630;55.874;37.516;2023-06-10T04:36:33;60.46;49.53;74.38;;
74260;Laerm;62630;55.874;37.516;2023-06-10T04:39:31;61.86;49.70;76.12;;
74260;Laerm;62630;55.874;37.516;2023-06-10T04:42:00;63.43;49.07;74.81;;
74260;Laerm;62630;55.874;37.516;2023-06-10T04:44:28;63.61;48.81;75.94;;
74260;Laerm;62630;55.874;37.516;2023-06-10T04:46:54;58.42;49.29;69.90;;
74260;Laerm;62630;55.874;37.516;2023-06-10T04:49:21;58.41;48.48;77.20;;
74260;Laerm;62630;55.874;37.516;2023-06-10T04:51:46;64.22;49.62;83.37;;
74260;Laerm;62630;55.874;37.516;2023-06-10T04:54:11;60.67;50.65;72.61;;
74260;Laerm;62630;55.874;37.516;2023-06-10T04:56:37;59.78;48.50;76.75;;
74260;Laerm;62630;55.874;37.516;2023-06-10T04:59:04;60.03;47.78;77.83;;
74260;Laerm;62630;55.874;37.516;2023-06-10T05:01:30;61.40;48.30;73.43;;
74260;Laerm;62630;55.874;37.516;2023-06-10T05:03:55;62.32;51.70;74.74;;
74260;Laerm;62630;55.874;37.516;2023-06-10T05:06:21;61.47;50.26;72.44;;
74260;Laerm;62630;55.874;37.516;2023-06-10T05:08:46;60.09;49.26;68.98;;
74260;Laerm;62630;55.874;37.516;2023-06-10T05:11:12;63.20;50.45;76.08;;
74260;Laerm;62630;55.874;37.516;2023-06-10T05:13:37;62.88;50.13;72.57;;
74260;Laerm;62630;55.874;37.516;2023-06-10T05:16:05;61.36;50.42;70.72;;
74260;Laerm;62630;55.874;37.516;2023-06-10T05:18:31;59.34;47.64;70.87;;
74260;Laerm;62630;55.874;37.516;2023-06-10T05:20:57;61.04;48.65;71.00;;
74260;Laerm;62630;55.874;37.516;2023-06-10T05:23:22;63.62;50.91;71.36;;
74260;Laerm;62630;55.874;37.516;2023-06-10T05:25:48;67.59;51.17;81.39;;
74260;Laerm;62630;55.874;37.516;2023-06-10T05:28:14;61.33;48.61;71.46;;
74260;Laerm;62630;55.874;37.516;2023-06-10T05:30:39;61.81;48.37;70.55;;
74260;Laerm;62630;55.874;37.516;2023-06-10T05:33:05;62.32;48.69;79.52;;
74260;Laerm;62630;55.874;37.516;2023-06-10T05:35:31;60.48;48.36;69.44;;
74260;Laerm;62630;55.874;37.516;2023-06-10T05:37:57;62.18;49.04;74.00;;
74260;Laerm;62630;55.874;37.516;2023-06-10T05:40:23;61.70;48.76;75.69;;
74260;Laerm;62630;55.874;37.516;2023-06-10T05:42:48;65.13;49.39;87.19;;
74260;Laerm;62630;55.874;37.516;2023-06-10T05:45:14;63.40;51.11;76.63;;
74260;Laerm;62630;55.874;37.516;2023-06-10T05:47:40;63.29;51.60;73.34;;
74260;Laerm;62630;55.874;37.516;2023-06-10T05:50:06;62.45;51.64;70.80;;
74260;Laerm;62630;55.874;37.516;2023-06-10T05:52:35;64.02;53.05;74.45;;
74260;Laerm;62630;55.874;37.516;2023-06-10T05:55:04;62.90;51.20;74.83;;
74260;Laerm;62630;55.874;37.516;2023-06-10T05:57:30;62.13;52.48;69.72;;
74260;Laerm;62630;55.874;37.516;2023-06-10T05:59:56;61.89;50.75;83.02;;
74260;Laerm;62630;55.874;37.516;2023-06-10T06:02:21;63.84;51.37;83.80;;
74260;Laerm;62630;55.874;37.516;2023-06-10T06:04:47;66.17;51.99;80.53;;
74260;Laerm;62630;55.874;37.516;2023-06-10T06:07:12;63.04;53.51;71.35;;
74260;Laerm;62630;55.874;37.516;2023-06-10T06:09:38;65.11;51.79;82.36;;
74260;Laerm;62630;55.874;37.516;2023-06-10T06:12:04;63.82;52.23;73.75;;
74260;Laerm;62630;55.874;37.516;2023-06-10T06:14:32;63.29;51.05;73.87;;
74260;Laerm;62630;55.874;37.516;2023-06-10T06:16:57;62.59;53.90;70.38;;
74260;Laerm;62630;55.874;37.516;2023-06-10T06:19:23;67.42;51.54;84.02;;
74260;Laerm;62630;55.874;37.516;2023-06-10T06:21:48;61.98;49.28;74.50;;
74260;Laerm;62630;55.874;37.516;2023-06-10T06:24:15;60.60;52.21;71.00;;
74260;Laerm;62630;55.874;37.516;2023-06-10T06:26:41;68.76;53.93;79.39;;
74260;Laerm;62630;55.874;37.516;2023-06-10T06:29:07;62.73;51.69;76.37;;
74260;Laerm;62630;55.874;37.516;2023-06-10T06:31:32;64.62;54.64;87.93;;
74260;Laerm;62630;55.874;37.516;2023-06-10T06:33:58;60.14;52.29;71.64;;
74260;Laerm;62630;55.874;37.516;2023-06-10T06:36:23;64.62;52.71;75.41;;
74260;Laerm;62630;55.874;37.516;2023-06-10T06:38:49;62.07;51.24;68.77;;
74260;Laerm;62630;55.874;37.516;2023-06-10T06:41:14;62.78;54.41;76.71;;
74260;Laerm;62630;55.874;37.516;2023-06-10T06:43:40;64.46;53.78;74.43;;
74260;Laerm;62630;55.874;37.516;2023-06-10T06:46:07;63.09;52.58;75.73;;
74260;Laerm;62630;55.874;37.516;2023-06-10T06:48:33;68.54;54.94;80.55;;
74260;Laerm;62630;55.874;37.516;2023-06-10T06:50:58;64.58;54.17;85.96;;
74260;Laerm;62630;55.874;37.516;2023-06-10T06:53:24;65.32;54.91;75.94;;
74260;Laerm;62630;55.874;37.516;2023-06-10T06:55:50;61.57;50.67;72.16;;
74260;Laerm;62630;55.874;37.516;2023-06-10T06:58:15;62.93;52.71;71.89;;
74260;Laerm;62630;55.874;37.516;2023-06-10T07:00:41;66.59;53.16;83.05;;
74260;Laerm;62630;55.874;37.516;2023-06-10T07:03:07;63.63;53.34;74.18;;
74260;Laerm;62630;55.874;37.516;2023-06-10T07:05:32;65.09;54.15;73.07;;
74260;Laerm;62630;55.874;37.516;2023-06-10T07:07:58;61.25;51.72;75.06;;
74260;Laerm;62630;55.874;37.516;2023-06-10T07:10:24;63.65;53.13;79.31;;
74260;Laerm;62630;55.874;37.516;2023-06-10T07:12:50;62.20;52.12;74.24;;
74260;Laerm;62630;55.874;37.516;2023-06-10T07:15:16;61.75;54.15;74.17;;
74260;Laerm;62630;55.874;37.516;2023-06-10T07:17:41;67.93;56.96;83.79;;
74260;Laerm;62630;55.874;37.516;2023-06-10T07:20:07;63.76;55.22;71.25;;
74260;Laerm;62630;55.874;37.516;2023-06-10T07:22:33;60.41;52.41;69.23;;
74260;Laerm;62630;55.874;37.516;2023-06-10T07:24:59;64.08;55.63;72.81;;
74260;Laerm;62630;55.874;37.516;2023-06-10T07:27:24;63.18;53.52;74.86;;
74260;Laerm;62630;55.874;37.516;2023-06-10T07:29:51;63.84;51.60;77.21;;
74260;Laerm;62630;55.874;37.516;2023-06-10T07:32:17;62.24;53.22;72.50;;
74260;Laerm;62630;55.874;37.516;2023-06-10T07:34:43;65.60;51.29;79.82;;
74260;Laerm;62630;55.874;37.516;2023-06-10T07:37:08;62.78;54.72;76.87;;
74260;Laerm;62630;55.874;37.516;2023-06-10T07:39:34;60.50;51.47;74.44;;
74260;Laerm;62630;55.874;37.516;2023-06-10T07:42:00;63.49;52.24;76.53;;
74260;Laerm;62630;55.874;37.516;2023-06-10T07:44:26;63.42;51.98;73.76;;
74260;Laerm;62630;55.874;37.516;2023-06-10T07:46:51;64.35;51.30;80.70;;
74260;Laerm;62630;55.874;37.516;2023-06-10T07:49:17;61.33;51.99;71.80;;
74260;Laerm;62630;55.874;37.516;2023-06-10T07:51:43;62.81;53.75;72.10;;
74260;Laerm;62630;55.874;37.516;2023-06-10T07:54:08;62.89;55.31;73.70;;
74260;Laerm;62630;55.874;37.516;2023-06-10T07:56:37;63.16;54.20;73.63;;
74260;Laerm;62630;55.874;37.516;2023-06-10T07:59:03;64.76;55.04;74.06;;
74260;Laerm;62630;55.874;37.516;2023-06-10T08:01:28;63.43;53.58;72.94;;
74260;Laerm;62630;55.874;37.516;2023-06-10T08:03:55;66.01;56.77;75.50;;
74260;Laerm;62630;55.874;37.516;2023-06-10T08:06:21;67.30;55.07;77.34;;
74260;Laerm;62630;55.874;37.516;2023-06-10T08:08:46;60.87;51.30;68.67;;
74260;Laerm;62630;55.874;37.516;2023-06-10T08:11:12;61.52;52.93;72.64;;
74260;Laerm;62630;55.874;37.516;2023-06-10T08:13:38;69.23;52.08;94.02;;
74260;Laerm;62630;55.874;37.516;2023-06-10T08:16:04;66.84;54.13;88.53;;
74260;Laerm;62630;55.874;37.516;2023-06-10T08:18:29;64.88;52.97;72.22;;
74260;Laerm;62630;55.874;37.516;2023-06-10T08:20:55;66.68;53.96;77.31;;
74260;Laerm;62630;55.874;37.516;2023-06-10T08:23:21;63.58;52.48;79.99;;
74260;Laerm;62630;55.874;37.516;2023-06-10T08:25:46;63.37;53.91;71.66;;
74260;Laerm;62630;55.874;37.516;2023-06-10T08:28:12;64.64;53.75;76.10;;
74260;Laerm;62630;55.874;37.516;2023-06-10T08:30:38;66.64;58.00;79.39;;
74260;Laerm;62630;55.874;37.516;2023-06-10T08:33:03;68.86;55.47;86.90;;
74260;Laerm;62630;55.874;37.516;2023-06-10T08:35:29;61.76;51.00;69.88;;
74260;Laerm;62630;55.874;37.516;2023-06-10T08:37:55;63.05;51.95;75.07;;
74260;Laerm;62630;55.874;37.516;2023-06-10T08:40:20;62.23;54.32;69.78;;
74260;Laerm;62630;55.874;37.516;2023-06-10T08:45:30;65.36;53.89;85.72;;
74260;Laerm;62630;55.874;37.516;2023-06-10T08:48:03;63.57;56.17;71.04;;
74260;Laerm;62630;55.874;37.516;2023-06-10T08:50:35;65.89;56.72;76.03;;
74260;Laerm;62630;55.874;37.516;2023-06-10T08:53:04;65.25;57.01;80.70;;
74260;Laerm;62630;55.874;37.516;2023-06-10T08:55:38;63.59;54.80;71.96;;
74260;Laerm;62630;55.874;37.516;2023-06-10T08:58:07;63.01;51.75;72.06;;
74260;Laerm;62630;55.874;37.516;2023-06-10T09:00:34;62.67;53.36;73.65;;
74260;Laerm;62630;55.874;37.516;2023-06-10T09:03:00;64.14;54.62;72.09;;
74260;Laerm;62630;55.874;37.516;2023-06-10T09:05:27;65.36;54.47;76.94;;
74260;Laerm;62630;55.874;37.516;2023-06-10T09:07:57;63.04;54.51;75.41;;
74260;Laerm;62630;55.874;37.516;2023-06-10T09:10:26;63.55;54.35;73.71;;
74260;Laerm;62630;55.874;37.516;2023-06-10T09:12:52;63.70;55.37;72.46;;
74260;Laerm;62630;55.874;37.516;2023-06-10T09:15:17;62.24;55.21;73.62;;
74260;Laerm;62630;55.874;37.516;2023-06-10T09:17:43;64.13;55.55;81.17;;
74260;Laerm;62630;55.874;37.516;2023-06-10T09:20:12;63.17;54.06;76.27;;
74260;Laerm;62630;55.874;37.516;2023-06-10T09:22:38;64.67;54.14;73.07;;
74260;Laerm;62630;55.874;37.516;2023-06-10T09:25:05;63.27;54.64;71.24;;
74260;Laerm;62630;55.874;37.516;2023-06-10T09:27:32;65.48;53.58;82.30;;
74260;Laerm;62630;55.874;37.516;2023-06-10T09:29:58;63.39;52.73;81.87;;
74260;Laerm;62630;55.874;37.516;2023-06-10T09:32:24;66.06;55.27;84.63;;
74260;Laerm;62630;55.874;37.516;2023-06-10T09:34:50;63.52;54.03;79.64;;
74260;Laerm;62630;55.874;37.516;2023-06-10T09:37:23;63.31;54.91;75.45;;
74260;Laerm;62630;55.874;37.516;2023-06-10T09:40:08;63.10;52.60;73.63;;
74260;Laerm;62630;55.874;37.516;2023-06-10T09:42:36;65.47;53.62;91.27;;
74260;Laerm;62630;55.874;37.516;2023-06-10T09:45:03;64.74;53.55;75.89;;
74260;Laerm;62630;55.874;37.516;2023-06-10T09:47:29;64.09;53.39;73.62;;
74260;Laerm;62630;55.874;37.516;2023-06-10T09:49:55;63.40;52.79;82.21;;
74260;Laerm;62630;55.874;37.516;2023-06-10T09:52:24;67.92;54.25;87.82;;
74260;Laerm;62630;55.874;37.516;2023-06-10T09:54:54;61.27;51.17;77.10;;
74260;Laerm;62630;55.874;37.516;2023-06-10T09:57:24;63.47;53.30;75.12;;
74260;Laerm;62630;55.874;37.516;2023-06-10T09:59:52;63.92;53.95;78.86;;
74260;Laerm;62630;55.874;37.516;2023-06-10T10:02:19;62.22;50.37;71.78;;
74260;Laerm;62630;55.874;37.516;2023-06-10T10:04:45;60.60;49.33;68.93;;
74260;Laerm;62630;55.874;37.516;2023-06-10T10:07:11;65.23;51.03;80.71;;
74260;Laerm;62630;55.874;37.516;2023-06-10T10:09:38;62.80;50.16;75.43;;
74260;Laerm;62630;55.874;37.516;2023-06-10T10:12:10;65.43;52.98;84.85;;
74260;Laerm;62630;55.874;37.516;2023-06-10T10:14:42;62.30;51.13;73.72;;
74260;Laerm;62630;55.874;37.516;2023-06-10T10:17:11;63.34;51.78;70.70;;
74260;Laerm;62630;55.874;37.516;2023-06-10T10:19:43;64.33;53.94;81.76;;
74260;Laerm;62630;55.874;37.516;2023-06-10T10:22:25;65.58;53.08;77.94;;
74260;Laerm;62630;55.874;37.516;2023-06-10T10:24:53;68.36;56.34;79.14;;
74260;Laerm;62630;55.874;37.516;2023-06-10T10:27:27;61.76;53.08;69.03;;
74260;Laerm;62630;55.874;37.516;2023-06-10T10:29:54;61.03;50.77;74.04;;
74260;Laerm;62630;55.874;37.516;2023-06-10T10:32:29;62.21;51.74;70.70;;
74260;Laerm;62630;55.874;37.516;2023-06-10T10:35:14;63.52;51.81;73.18;;
74260;Laerm;62630;55.874;37.516;2023-06-10T10:37:42;63.26;51.73;74.20;;
74260;Laerm;62630;55.874;37.516;2023-06-10T10:40:08;66.53;48.82;79.09;;
74260;Laerm;62630;55.874;37.516;2023-06-10T10:42:35;62.94;50.89;74.94;;
74260;Laerm;62630;55.874;37.516;2023-06-10T10:45:02;65.71;53.44;76.77;;
74260;Laerm;62630;55.874;37.516;2023-06-10T10:47:28;69.44;56.60;81.75;;
74260;Laerm;62630;55.874;37.516;2023-06-10T10:49:56;62.72;50.77;71.53;;
74260;Laerm;62630;55.874;37.516;2023-06-10T10:52:24;63.20;50.39;73.65;;
74260;Laerm;62630;55.874;37.516;2023-06-10T10:54:53;64.76;55.82;83.15;;
74260;Laerm;62630;55.874;37.516;2023-06-10T10:57:20;64.51;52.90;75.23;;
74260;Laerm;62630;55.874;37.516;2023-06-10T11:04:57;61.59;53.32;70.66;;
74260;Laerm;62630;55.874;37.516;2023-06-10T11:07:24;63.71;55.82;81.15;;
74260;Laerm;62630;55.874;37.516;2023-06-10T11:10:02;62.06;54.18;70.43;;
74260;Laerm;62630;55.874;37.516;2023-06-10T11:12:57;63.73;54.23;76.48;;
74260;Laerm;62630;55.874;37.516;2023-06-10T11:15:24;64.56;55.38;72.71;;
74260;Laerm;62630;55.874;37.516;2023-06-10T11:18:10;60.61;51.15;69.94;;
74260;Laerm;62630;55.874;37.516;2023-06-10T11:26:20;62.49;51.97;71.88;;
74260;Laerm;62630;55.874;37.516;2023-06-10T11:31:27;63.22;55.71;72.25;;
74260;Laerm;62630;55.874;37.516;2023-06-10T11:34:04;62.25;52.99;70.40;;
74260;Laerm;62630;55.874;37.516;2023-06-10T11:36:32;63.42;54.60;75.36;;
74260;Laerm;62630;55.874;37.516;2023-06-10T11:39:01;64.33;55.17;86.66;;
74260;Laerm;62630;55.874;37.516;2023-06-10T11:41:28;60.06;50.41;73.76;;
74260;Laerm;62630;55.874;37.516;2023-06-10T11:43:55;61.85;49.05;76.84;;
74260;Laerm;62630;55.874;37.516;2023-06-10T11:46:24;71.35;53.91;83.85;;
74260;Laerm;62630;55.874;37.516;2023-06-10T11:48:57;66.99;54.12;79.63;;
74260;Laerm;62630;55.874;37.516;2023-06-10T11:51:28;63.31;52.86;77.36;;
74260;Laerm;62630;55.874;37.516;2023-06-10T11:53:54;64.16;54.75;77.04;;
74260;Laerm;62630;55.874;37.516;2023-06-10T11:56:21;63.87;52.28;73.02;;
74260;Laerm;62630;55.874;37.516;2023-06-10T11:58:55;63.06;51.87;77.80;;
74260;Laerm;62630;55.874;37.516;2023-06-10T12:01:23;65.05;56.20;84.04;;
74260;Laerm;62630;55.874;37.516;2023-06-10T12:04:06;64.08;51.16;74.34;;
74260;Laerm;62630;55.874;37.516;2023-06-10T12:06:49;61.09;50.95;71.68;;
74260;Laerm;62630;55.874;37.516;2023-06-10T12:11:45;61.80;53.87;73.16;;
74260;Laerm;62630;55.874;37.516;2023-06-10T12:14:11;63.33;55.09;72.98;;
74260;Laerm;62630;55.874;37.516;2023-06-10T12:16:37;64.05;53.40;74.64;;
74260;Laerm;62630;55.874;37.516;2023-06-10T12:19:04;61.30;53.11;70.68;;
74260;Laerm;62630;55.874;37.516;2023-06-10T12:21:32;60.96;51.52;69.77;;
74260;Laerm;62630;55.874;37.516;2023-06-10T12:24:07;62.67;53.47;71.99;;
74260;Laerm;62630;55.874;37.516;2023-06-10T12:26:37;65.09;54.61;74.24;;
74260;Laerm;62630;55.874;37.516;2023-06-10T12:29:18;62.38;51.44;72.35;;
74260;Laerm;62630;55.874;37.516;2023-06-10T12:32:01;62.40;51.85;75.09;;
74260;Laerm;62630;55.874;37.516;2023-06-10T12:34:35;64.35;52.27;77.26;;
74260;Laerm;62630;55.874;37.516;2023-06-10T12:37:02;65.95;54.14;79.22;;
74260;Laerm;62630;55.874;37.516;2023-06-10T12:39:30;59.38;51.88;69.59;;
74260;Laerm;62630;55.874;37.516;2023-06-10T12:41:56;63.14;53.37;72.68;;
74260;Laerm;62630;55.874;37.516;2023-06-10T12:44:32;60.61;50.47;72.01;;
74260;Laerm;62630;55.874;37.516;2023-06-10T12:46:58;61.37;49.47;73.56;;
74260;Laerm;62630;55.874;37.516;2023-06-10T12:49:24;60.29;51.16;68.55;;
74260;Laerm;62630;55.874;37.516;2023-06-10T12:51:51;64.86;53.12;76.86;;
74260;Laerm;62630;55.874;37.516;2023-06-10T12:54:17;67.09;54.92;80.85;;
74260;Laerm;62630;55.874;37.516;2023-06-10T12:56:43;65.78;53.83;76.40;;
74260;Laerm;62630;55.874;37.516;2023-06-10T12:59:08;62.04;52.93;78.54;;
74260;Laerm;62630;55.874;37.516;2023-06-10T13:01:34;65.21;55.55;79.19;;
74260;Laerm;62630;55.874;37.516;2023-06-10T13:03:59;62.74;53.28;72.90;;
74260;Laerm;62630;55.874;37.516;2023-06-10T13:06:25;64.27;57.27;73.97;;
74260;Laerm;62630;55.874;37.516;2023-06-10T13:08:51;62.04;53.65;76.14;;
74260;Laerm;62630;55.874;37.516;2023-06-10T13:11:16;64.22;53.44;89.17;;
74260;Laerm;62630;55.874;37.516;2023-06-10T13:13:42;63.86;56.02;72.38;;
74260;Laerm;62630;55.874;37.516;2023-06-10T13:16:08;64.23;57.24;75.84;;
74260;Laerm;62630;55.874;37.516;2023-06-10T13:18:34;62.13;52.50;73.86;;
74260;Laerm;62630;55.874;37.516;2023-06-10T13:21:06;61.32;51.40;71.34;;
74260;Laerm;62630;55.874;37.516;2023-06-10T13:23:32;62.27;51.02;74.57;;
74260;Laerm;62630;55.874;37.516;2023-06-10T13:25:58;60.84;50.98;70.23;;
74260;Laerm;62630;55.874;37.516;2023-06-10T13:28:23;70.09;52.89;86.60;;
74260;Laerm;62630;55.874;37.516;2023-06-10T13:30:49;60.33;51.63;72.54;;
74260;Laerm;62630;55.874;37.516;2023-06-10T13:33:15;61.98;52.22;72.84;;
74260;Laerm;62630;55.874;37.516;2023-06-10T13:35:40;63.86;53.82;79.49;;
74260;Laerm;62630;55.874;37.516;2023-06-10T13:38:06;60.70;53.06;70.57;;
74260;Laerm;62630;55.874;37.516;2023-06-10T13:40:32;60.28;52.47;77.17;;
74260;Laerm;62630;55.874;37.516;2023-06-10T13:42:58;60.38;53.22;71.67;;
74260;Laerm;62630;55.874;37.516;2023-06-10T13:45:23;63.77;53.00;78.91;;
74260;Laerm;62630;55.874;37.516;2023-06-10T13:47:50;63.06;54.96;77.27;;
74260;Laerm;62630;55.874;37.516;2023-06-10T13:50:16;62.86;55.74;71.53;;
74260;Laerm;62630;55.874;37.516;2023-06-10T13:52:41;63.09;56.02;76.24;;
74260;Laerm;62630;55.874;37.516;2023-06-10T13:55:09;62.34;54.86;72.44;;